createdAt,value
2018-04-16T19:53:53.466Z,13.72
2018-04-16T19:56:27.280Z,13.65
2018-04-16T19:58:56.383Z,13.56
2018-04-16T20:01:24.774Z,13.53
2018-04-16T20:03:58.438Z,13.53
2018-04-16T20:06:26.791Z,13.51
2018-04-16T20:08:55.182Z,13.47
2018-04-16T20:11:33.567Z,13.48
2018-04-16T20:14:01.741Z,13.39
2018-04-16T20:16:30.107Z,13.35
2018-04-16T20:18:59.237Z,13.23
2018-04-16T20:21:32.200Z,13.20
2018-04-16T20:24:01.516Z,13.21
2018-04-16T20:26:29.942Z,13.22
2018-04-16T20:28:58.299Z,13.23
2018-04-16T20:31:26.697Z,13.24
2018-04-16T20:33:55.064Z,13.26
2018-04-16T20:36:23.515Z,13.32
2018-04-16T20:38:51.875Z,13.37
2018-04-16T20:41:21.191Z,13.35
2018-04-16T20:43:49.580Z,13.36
2018-04-16T20:46:17.942Z,13.28
2018-04-16T20:48:46.315Z,13.33
2018-04-16T20:51:14.663Z,13.30
2018-04-16T20:53:43.042Z,13.33
2018-04-16T20:56:11.400Z,13.31
2018-04-16T20:58:39.772Z,13.33
2018-04-16T21:01:08.129Z,13.28
2018-04-16T21:03:36.490Z,13.33
2018-04-16T21:06:04.845Z,13.33
2018-04-16T21:08:33.208Z,13.33
2018-04-16T21:11:01.576Z,13.27
2018-04-16T21:13:29.931Z,13.19
2018-04-16T21:15:58.276Z,13.17
2018-04-16T21:18:26.629Z,13.21
2018-04-16T21:20:55.077Z,13.12
2018-04-16T21:23:23.492Z,13.15
2018-04-16T21:25:51.853Z,13.16
2018-04-16T21:28:20.211Z,13.14
2018-04-16T21:30:48.572Z,13.17
2018-04-16T21:33:16.927Z,13.09
2018-04-16T21:35:45.283Z,13.05
2018-04-16T21:38:13.688Z,13.06
2018-04-16T21:40:42.060Z,12.98
2018-04-16T21:43:10.210Z,12.96
2018-04-16T21:45:38.567Z,12.99
2018-04-16T21:48:06.916Z,13.01
2018-04-16T21:50:35.279Z,13.06
2018-04-16T21:53:03.395Z,13.06
2018-04-16T21:55:31.970Z,13.06
2018-04-16T21:58:00.371Z,13.05
2018-04-16T22:00:28.734Z,13.03
2018-04-16T22:02:57.140Z,13.06
2018-04-16T22:05:25.486Z,12.96
2018-04-16T22:07:53.836Z,12.89
2018-04-16T22:10:22.211Z,12.65
2018-04-16T22:12:50.746Z,12.58
2018-04-16T22:15:19.095Z,12.49
2018-04-16T22:17:48.236Z,12.40
2018-04-16T22:20:16.598Z,12.24
2018-04-16T22:22:44.963Z,12.17
2018-04-16T22:25:13.104Z,12.17
2018-04-16T22:27:41.467Z,12.25
2018-04-16T22:30:09.623Z,12.29
2018-04-16T22:32:37.971Z,12.38
2018-04-16T22:35:06.348Z,12.38
2018-04-16T22:37:34.718Z,12.47
2018-04-16T22:40:03.186Z,12.52
2018-04-16T22:42:31.530Z,12.49
2018-04-16T22:44:59.897Z,12.51
2018-04-16T22:47:28.250Z,12.50
2018-04-16T22:49:56.621Z,12.55
2018-04-16T22:52:24.963Z,12.51
2018-04-16T22:54:53.094Z,12.50
2018-04-16T22:57:21.492Z,12.51
2018-04-16T22:59:49.916Z,12.49
2018-04-16T23:02:18.272Z,12.56
2018-04-16T23:04:46.623Z,12.59
2018-04-16T23:07:14.989Z,12.61
2018-04-16T23:09:43.365Z,12.61
2018-04-16T23:12:11.768Z,12.58
2018-04-16T23:14:40.120Z,12.50
2018-04-16T23:17:08.540Z,12.48
2018-04-16T23:19:36.894Z,12.45
2018-04-16T23:22:05.257Z,12.47
2018-04-16T23:24:33.628Z,12.50
2018-04-16T23:27:01.996Z,12.50
2018-04-16T23:29:30.360Z,12.50
2018-04-16T23:31:58.714Z,12.56
2018-04-16T23:34:27.113Z,12.58
2018-04-16T23:36:55.478Z,12.59
2018-04-16T23:39:23.837Z,12.59
2018-04-16T23:41:52.238Z,12.59
2018-04-16T23:44:20.596Z,12.61
2018-04-16T23:46:49.000Z,12.62
2018-04-16T23:49:17.374Z,12.61
2018-04-16T23:51:45.812Z,12.60
2018-04-16T23:54:14.189Z,12.59
2018-04-16T23:56:42.591Z,12.66
2018-04-16T23:59:10.945Z,12.74
